createdAt,value
2018-03-24T00:00:50.503Z,36.67
2018-03-24T00:03:16.461Z,36.59
2018-03-24T00:05:42.452Z,36.55
2018-03-24T00:08:08.444Z,36.53
2018-03-24T00:10:34.435Z,36.42
2018-03-24T00:13:00.424Z,36.47
2018-03-24T00:15:26.412Z,36.42
2018-03-24T00:17:52.407Z,36.37
2018-03-24T00:20:18.388Z,36.29
2018-03-24T00:22:44.382Z,36.27
2018-03-24T00:25:10.382Z,36.21
2018-03-24T00:27:36.372Z,36.11
2018-03-24T00:30:02.368Z,36.14
2018-03-24T00:32:28.356Z,36.08
2018-03-24T00:34:54.355Z,36.12
2018-03-24T00:37:20.350Z,36.03
2018-03-24T00:39:46.368Z,36.02
2018-03-24T00:42:12.397Z,36.06
2018-03-24T00:44:38.349Z,35.99
2018-03-24T00:47:04.370Z,35.96
2018-03-24T00:49:30.326Z,35.96
2018-03-24T00:51:56.328Z,35.91
2018-03-24T00:54:22.322Z,35.86
2018-03-24T00:56:48.333Z,35.87
2018-03-24T00:59:14.323Z,35.87
2018-03-24T01:01:40.310Z,35.82
2018-03-24T01:04:06.296Z,35.76
2018-03-24T01:06:32.308Z,35.75
2018-03-24T01:08:58.326Z,35.72
2018-03-24T01:11:24.337Z,35.73
2018-03-24T01:13:50.298Z,35.72
2018-03-24T01:16:16.322Z,35.71
2018-03-24T01:18:42.284Z,35.67
2018-03-24T01:21:08.301Z,35.60
2018-03-24T01:23:34.295Z,35.66
2018-03-24T01:26:00.253Z,35.58
2018-03-24T01:28:26.275Z,35.60
2018-03-24T01:33:18.254Z,35.45
2018-03-24T01:35:44.265Z,35.43
2018-03-24T01:38:10.223Z,35.45
2018-03-24T01:40:36.215Z,35.47
2018-03-24T01:43:02.211Z,35.42
2018-03-24T01:45:28.233Z,35.32
2018-03-24T01:47:54.199Z,35.42
2018-03-24T01:50:20.223Z,35.47
2018-03-24T01:52:46.215Z,35.36
2018-03-24T01:55:12.239Z,35.38
2018-03-24T01:57:38.200Z,35.42
2018-03-24T02:00:04.221Z,35.36
2018-03-24T02:02:30.205Z,35.41
2018-03-24T02:04:56.221Z,35.42
2018-03-24T02:07:22.206Z,35.37
2018-03-24T02:09:48.194Z,35.41
2018-03-24T02:12:14.185Z,35.40
2018-03-24T02:14:40.173Z,35.38
2018-03-24T02:17:06.266Z,35.33
2018-03-24T02:19:32.283Z,35.33
2018-03-24T02:21:58.247Z,35.29
2018-03-24T02:24:24.240Z,35.25
2018-03-24T02:26:50.267Z,35.32
2018-03-24T02:29:16.225Z,35.27
2018-03-24T02:31:42.208Z,35.26
2018-03-24T02:34:08.199Z,35.27
2018-03-24T02:36:34.209Z,35.20
2018-03-24T02:39:00.203Z,35.29
2018-03-24T02:41:26.188Z,35.31
2018-03-24T02:43:52.177Z,35.29
2018-03-24T02:46:18.168Z,35.29
2018-03-24T02:48:44.166Z,35.24
2018-03-24T02:51:10.167Z,35.27
2018-03-24T02:53:36.179Z,35.30
2018-03-24T02:56:02.138Z,35.27
2018-03-24T02:58:28.159Z,35.22
2018-03-24T03:00:54.140Z,35.21
2018-03-24T03:03:20.131Z,35.25
2018-03-24T03:05:46.118Z,35.24
2018-03-24T03:08:12.116Z,35.23
2018-03-24T03:10:38.103Z,35.22
2018-03-24T03:13:04.095Z,35.19
2018-03-24T03:15:30.084Z,35.19
2018-03-24T03:17:56.139Z,35.20
2018-03-24T03:20:22.103Z,35.13
2018-03-24T03:22:48.080Z,35.17
2018-03-24T03:25:14.069Z,35.17
2018-03-24T03:27:40.057Z,35.11
2018-03-24T03:30:06.164Z,35.14
2018-03-24T03:32:32.153Z,35.11
2018-03-24T03:34:58.182Z,35.11
2018-03-24T03:37:24.178Z,35.08
2018-03-24T03:39:50.136Z,35.11
2018-03-24T03:42:16.126Z,35.04
2018-03-24T03:44:42.145Z,35.05
2018-03-24T03:47:08.143Z,34.96
2018-03-24T03:49:34.135Z,35.08
2018-03-24T03:52:00.126Z,35.02
2018-03-24T03:54:26.117Z,35.00
2018-03-24T03:56:52.075Z,35.02
2018-03-24T03:59:18.065Z,34.99
2018-03-24T04:01:44.081Z,35.01
2018-03-24T04:04:10.040Z,34.93
2018-03-24T04:06:36.066Z,34.97
2018-03-24T04:09:02.025Z,35.00
2018-03-24T04:11:28.022Z,34.95
2018-03-24T04:13:54.010Z,34.87
2018-03-24T04:16:20.002Z,34.92
2018-03-24T04:18:46.026Z,34.83
2018-03-24T04:21:12.015Z,34.87
2018-03-24T04:23:38.010Z,34.80
2018-03-24T04:26:03.969Z,34.86
2018-03-24T04:28:30.011Z,34.83
2018-03-24T04:30:55.991Z,34.80
2018-03-24T04:33:21.985Z,34.77
2018-03-24T04:35:47.995Z,34.75
2018-03-24T04:38:13.979Z,34.74
2018-03-24T04:40:39.998Z,34.72
2018-03-24T04:43:05.993Z,34.77
2018-03-24T04:45:31.948Z,34.73
2018-03-24T04:47:57.944Z,34.77
2018-03-24T04:50:23.937Z,34.70
2018-03-24T04:52:49.984Z,34.69
2018-03-24T04:55:15.951Z,34.71
2018-03-24T04:57:41.968Z,34.65
2018-03-24T05:00:07.987Z,34.61
2018-03-24T05:02:33.974Z,34.59
2018-03-24T05:04:59.926Z,34.57
2018-03-24T05:07:25.924Z,34.56
2018-03-24T05:09:51.918Z,34.56
2018-03-24T05:12:17.960Z,34.60
2018-03-24T05:14:43.913Z,34.46
2018-03-24T05:17:09.902Z,34.54
2018-03-24T05:19:35.898Z,34.59
2018-03-24T05:22:01.890Z,34.46
2018-03-24T05:24:27.881Z,34.47
2018-03-24T05:26:53.883Z,34.37
2018-03-24T05:29:19.874Z,34.47
2018-03-24T05:31:45.865Z,34.49
2018-03-24T05:34:11.859Z,34.63
2018-03-24T05:36:37.848Z,34.59
2018-03-24T05:39:03.875Z,34.57
2018-03-24T05:41:29.830Z,34.71
2018-03-24T05:43:55.830Z,34.59
2018-03-24T05:46:21.817Z,34.61
2018-03-24T05:48:47.815Z,34.52
2018-03-24T05:51:13.832Z,34.65
2018-03-24T05:53:39.804Z,34.59
2018-03-24T05:56:05.794Z,34.66
2018-03-24T05:58:31.796Z,34.76
2018-03-24T06:00:57.787Z,34.04
2018-03-24T06:03:23.807Z,33.66
2018-03-24T06:05:49.783Z,34.27
2018-03-24T06:08:15.771Z,34.24
2018-03-24T06:10:41.764Z,34.33
2018-03-24T06:13:07.781Z,34.45
2018-03-24T06:15:33.797Z,34.65
2018-03-24T06:17:59.749Z,34.88
2018-03-24T06:20:25.747Z,35.15
2018-03-24T06:22:51.783Z,35.60
2018-03-24T06:25:17.781Z,35.78
2018-03-24T06:27:43.768Z,36.19
2018-03-24T06:30:09.759Z,36.15
2018-03-24T06:32:35.741Z,36.15
2018-03-24T06:35:01.732Z,35.93
2018-03-24T06:37:27.764Z,36.27
2018-03-24T06:39:53.718Z,36.34
2018-03-24T06:42:19.728Z,36.18
2018-03-24T06:44:45.765Z,36.35
2018-03-24T06:47:11.737Z,35.91
2018-03-24T06:49:37.834Z,35.83
2018-03-24T06:52:03.822Z,35.76
2018-03-24T06:54:29.846Z,35.70
2018-03-24T06:56:55.868Z,35.64
2018-03-24T06:59:21.823Z,35.65
2018-03-24T07:01:47.815Z,35.64
2018-03-24T07:04:13.850Z,35.88
2018-03-24T07:06:39.838Z,35.81
2018-03-24T07:09:05.823Z,36.13
2018-03-24T07:11:31.809Z,36.51
2018-03-24T07:13:57.806Z,36.56
2018-03-24T07:16:23.856Z,36.97
2018-03-24T07:18:49.790Z,37.14
2018-03-24T07:21:15.853Z,37.29
2018-03-24T07:23:41.769Z,37.83
2018-03-24T07:26:07.760Z,37.53
2018-03-24T07:28:33.755Z,37.50
2018-03-24T07:30:59.770Z,37.40
2018-03-24T07:33:25.809Z,37.57
2018-03-24T07:35:51.771Z,37.10
2018-03-24T07:38:17.765Z,37.41
2018-03-24T07:40:43.760Z,37.39
2018-03-24T07:43:09.752Z,37.30
2018-03-24T07:45:35.900Z,37.18
2018-03-24T07:48:01.932Z,37.22
2018-03-24T07:50:27.918Z,37.19
2018-03-24T07:52:53.974Z,37.14
2018-03-24T07:55:19.921Z,36.94
2018-03-24T07:57:45.941Z,36.85
2018-03-24T08:00:11.900Z,37.03
2018-03-24T08:02:37.900Z,37.06
2018-03-24T08:05:03.947Z,37.08
2018-03-24T08:07:29.897Z,37.02
2018-03-24T08:09:55.903Z,37.00
2018-03-24T08:12:21.893Z,37.00
2018-03-24T08:14:47.889Z,36.89
2018-03-24T08:17:13.997Z,36.95
2018-03-24T08:19:40.017Z,36.82
2018-03-24T08:22:06.033Z,36.92
2018-03-24T08:24:32.051Z,37.02
2018-03-24T08:26:57.991Z,36.85
2018-03-24T08:29:23.993Z,36.69
2018-03-24T08:31:49.986Z,36.95
2018-03-24T08:34:16.018Z,36.66
2018-03-24T08:36:41.978Z,37.12
2018-03-24T08:39:07.978Z,37.04
2018-03-24T08:41:33.999Z,37.00
2018-03-24T08:44:00.021Z,36.95
2018-03-24T08:46:26.362Z,36.94
2018-03-24T08:48:53.115Z,36.92
2018-03-24T08:51:19.108Z,36.83
2018-03-24T08:53:45.171Z,36.77
2018-03-24T08:56:11.161Z,36.54
2018-03-24T08:58:37.199Z,36.56
2018-03-24T09:01:03.174Z,36.57
2018-03-24T09:03:29.255Z,36.58
2018-03-24T09:05:55.180Z,36.50
2018-03-24T09:08:21.166Z,36.48
2018-03-24T09:10:47.186Z,36.50
2018-03-24T09:13:13.214Z,36.41
2018-03-24T09:15:39.177Z,36.38
2018-03-24T09:18:05.166Z,36.38
2018-03-24T09:20:31.165Z,36.28
2018-03-24T09:22:57.172Z,36.41
2018-03-24T09:25:23.218Z,36.48
2018-03-24T09:27:49.371Z,36.57
2018-03-24T09:30:15.985Z,36.48
2018-03-24T09:32:41.997Z,36.51
2018-03-24T09:35:07.955Z,36.49
2018-03-24T09:37:40.085Z,36.56
2018-03-24T09:40:05.924Z,36.54
2018-03-24T09:42:31.910Z,36.59
2018-03-24T09:44:57.939Z,36.57
2018-03-24T09:47:23.987Z,36.58
2018-03-24T09:49:49.917Z,36.65
2018-03-24T09:52:16.377Z,36.46
2018-03-24T09:54:42.361Z,36.47
2018-03-24T09:57:08.359Z,36.41
2018-03-24T09:59:34.355Z,36.37
2018-03-24T10:02:00.633Z,36.45
2018-03-24T10:04:26.650Z,36.45
2018-03-24T10:06:52.617Z,36.40
2018-03-24T10:09:18.688Z,36.30
2018-03-24T10:11:44.736Z,36.15
2018-03-24T10:14:10.701Z,36.06
2018-03-24T10:16:36.690Z,35.97
2018-03-24T10:19:02.722Z,35.94
2018-03-24T10:21:28.716Z,35.90
2018-03-24T10:23:54.730Z,35.87
2018-03-24T10:26:20.721Z,35.82
2018-03-24T10:28:46.801Z,35.76
2018-03-24T10:31:12.796Z,36.05
2018-03-24T10:33:38.781Z,36.12
2018-03-24T10:36:04.796Z,36.13
2018-03-24T10:38:30.783Z,36.28
2018-03-24T10:40:56.769Z,36.45
2018-03-24T10:43:22.758Z,36.56
2018-03-24T10:45:48.823Z,36.66
2018-03-24T10:48:15.021Z,36.44
2018-03-24T10:50:41.013Z,36.47
2018-03-24T10:53:07.986Z,36.49
2018-03-24T10:55:34.003Z,36.50
2018-03-24T10:58:00.526Z,36.48
2018-03-24T11:00:26.909Z,36.50
2018-03-24T11:02:52.902Z,36.47
2018-03-24T11:05:18.901Z,36.28
2018-03-24T11:07:44.903Z,36.27
2018-03-24T11:10:10.927Z,36.46
2018-03-24T11:12:37.000Z,36.47
2018-03-24T11:15:02.987Z,36.32
2018-03-24T11:17:29.001Z,36.64
2018-03-24T11:19:55.018Z,36.62
2018-03-24T11:22:21.334Z,36.35
2018-03-24T11:24:47.327Z,36.30
2018-03-24T11:27:15.388Z,36.09
2018-03-24T11:29:42.458Z,35.86
2018-03-24T11:32:08.495Z,35.65
2018-03-24T11:34:34.492Z,35.33
2018-03-24T11:37:02.021Z,35.11
2018-03-24T11:39:28.028Z,34.92
2018-03-24T11:41:54.045Z,34.63
2018-03-24T11:44:20.076Z,34.47
2018-03-24T11:46:46.101Z,34.26
2018-03-24T11:49:12.137Z,34.36
2018-03-24T11:51:38.096Z,34.54
2018-03-24T11:54:04.136Z,34.46
2018-03-24T11:56:30.125Z,34.24
2018-03-24T11:58:56.165Z,34.15
2018-03-24T12:01:22.304Z,34.10
2018-03-24T12:03:48.308Z,34.03
2018-03-24T12:06:14.285Z,33.81
2018-03-24T12:08:40.313Z,33.51
2018-03-24T12:11:06.316Z,33.48
2018-03-24T12:13:34.657Z,33.49
2018-03-24T12:16:00.645Z,33.14
2018-03-24T12:18:26.655Z,32.68
2018-03-24T12:20:52.652Z,32.40
2018-03-24T12:23:18.644Z,32.79
2018-03-24T12:25:44.641Z,32.62
2018-03-24T12:28:10.694Z,31.93
2018-03-24T12:30:36.742Z,32.42
2018-03-24T12:33:03.091Z,32.03
2018-03-24T12:35:29.066Z,31.72
2018-03-24T12:37:55.063Z,32.05
2018-03-24T12:40:21.017Z,32.80
2018-03-24T12:42:47.184Z,32.36
2018-03-24T12:45:13.378Z,32.59
2018-03-24T12:47:39.437Z,32.67
2018-03-24T12:50:05.468Z,32.76
2018-03-24T12:52:31.418Z,33.01
2018-03-24T12:54:57.454Z,32.93
2018-03-24T12:57:23.539Z,32.92
2018-03-24T12:59:49.535Z,32.92
2018-03-24T13:02:15.716Z,33.30
2018-03-24T13:04:42.260Z,33.42
2018-03-24T13:07:08.263Z,33.41
2018-03-24T13:09:34.249Z,33.47
2018-03-24T13:12:00.279Z,33.48
2018-03-24T13:14:26.253Z,33.64
2018-03-24T13:16:52.710Z,33.68
2018-03-24T13:19:18.700Z,33.66
2018-03-24T13:21:44.702Z,33.77
2018-03-24T13:24:10.729Z,33.80
2018-03-24T13:26:36.726Z,33.85
2018-03-24T13:29:02.774Z,33.87
2018-03-24T13:31:28.772Z,33.93
2018-03-24T13:33:54.773Z,33.84
2018-03-24T13:36:20.807Z,33.81
2018-03-24T13:38:46.763Z,33.93
2018-03-24T13:41:13.005Z,33.82
2018-03-24T13:43:39.007Z,33.97
2018-03-24T13:46:05.034Z,34.00
2018-03-24T13:48:31.021Z,33.97
2018-03-24T13:50:57.013Z,34.11
2018-03-24T13:53:23.043Z,34.16
2018-03-24T13:55:49.424Z,34.30
2018-03-24T13:58:16.502Z,34.26
2018-03-24T14:03:17.576Z,34.51
2018-03-24T14:05:43.560Z,34.55
2018-03-24T14:08:09.765Z,34.54
2018-03-24T14:10:52.876Z,34.57
2018-03-24T14:13:18.709Z,34.72
2018-03-24T14:15:44.689Z,34.86
2018-03-24T14:18:10.767Z,34.84
2018-03-24T14:20:36.761Z,34.87
2018-03-24T14:23:02.749Z,35.14
2018-03-24T14:25:28.765Z,34.87
2018-03-24T14:27:54.798Z,34.82
2018-03-24T14:30:20.756Z,34.95
2018-03-24T14:32:46.782Z,34.85
2018-03-24T14:35:12.773Z,34.91
2018-03-24T14:37:38.732Z,34.92
2018-03-24T14:40:04.762Z,34.81
2018-03-24T14:42:37.966Z,34.92
2018-03-24T14:45:03.963Z,34.98
2018-03-24T14:47:30.217Z,35.08
2018-03-24T14:49:56.214Z,35.37
2018-03-24T14:52:22.238Z,35.42
2018-03-24T14:54:48.231Z,35.71
2018-03-24T14:57:14.223Z,35.50
2018-03-24T14:59:40.210Z,35.68
2018-03-24T15:02:06.205Z,35.45
2018-03-24T15:04:32.191Z,35.50
2018-03-24T15:06:58.209Z,35.47
2018-03-24T15:09:24.234Z,35.40
2018-03-24T15:11:50.229Z,35.48
2018-03-24T15:14:16.194Z,35.23
2018-03-24T15:16:42.199Z,35.37
2018-03-24T15:19:08.193Z,35.33
2018-03-24T15:21:34.194Z,35.28
2018-03-24T15:24:00.192Z,35.23
2018-03-24T15:26:26.234Z,35.38
2018-03-24T15:28:52.182Z,35.37
2018-03-24T15:31:18.181Z,35.30
2018-03-24T15:33:44.202Z,35.25
2018-03-24T15:36:10.197Z,35.37
2018-03-24T15:38:36.204Z,35.33
2018-03-24T15:41:02.203Z,35.34
2018-03-24T15:43:28.170Z,35.35
2018-03-24T15:45:54.184Z,35.40
2018-03-24T15:48:20.188Z,35.40
2018-03-24T15:50:46.804Z,35.44
2018-03-24T15:53:13.134Z,35.38
2018-03-24T15:55:39.440Z,35.62
2018-03-24T15:58:05.740Z,35.56
2018-03-24T16:00:40.765Z,35.55
2018-03-24T16:05:56.513Z,35.49
2018-03-24T16:08:22.498Z,35.42
2018-03-24T16:10:48.491Z,35.61
2018-03-24T16:13:14.526Z,35.82
2018-03-24T16:15:40.529Z,35.98
2018-03-24T16:18:06.549Z,36.02
2018-03-24T16:20:32.506Z,36.05
2018-03-24T16:22:58.522Z,35.82
2018-03-24T16:25:24.514Z,35.93
2018-03-24T16:27:50.501Z,36.16
2018-03-24T16:30:17.498Z,36.38
2018-03-24T16:32:43.515Z,36.49
2018-03-24T16:35:09.471Z,36.49
2018-03-24T16:37:35.469Z,36.46
2018-03-24T16:40:01.449Z,36.45
2018-03-24T16:42:27.445Z,36.47
2018-03-24T16:44:53.448Z,36.36
2018-03-24T16:47:19.466Z,36.44
2018-03-24T16:49:45.459Z,36.32
2018-03-24T16:54:37.451Z,35.87
2018-03-24T16:57:03.474Z,36.11
2018-03-24T16:59:29.442Z,35.89
2018-03-24T17:01:55.444Z,35.85
2018-03-24T17:04:21.439Z,36.04
2018-03-24T17:06:47.431Z,35.99
2018-03-24T17:09:13.419Z,35.89
2018-03-24T17:11:39.449Z,35.77
2018-03-24T17:14:05.423Z,35.95
2018-03-24T17:16:31.427Z,36.01
2018-03-24T17:18:57.440Z,35.82
2018-03-24T17:21:23.445Z,35.91
2018-03-24T17:23:49.428Z,35.87
2018-03-24T17:26:15.426Z,36.03
2018-03-24T17:28:41.420Z,35.85
2018-03-24T17:31:07.430Z,36.31
2018-03-24T17:33:33.423Z,36.14
2018-03-24T17:35:59.439Z,36.36
2018-03-24T17:38:25.432Z,36.18
2018-03-24T17:40:51.425Z,36.33
2018-03-24T17:43:17.451Z,36.28
2018-03-24T17:45:43.411Z,36.15
2018-03-24T17:48:09.479Z,35.94
2018-03-24T17:50:35.541Z,35.88
2018-03-24T17:53:01.535Z,35.94
2018-03-24T17:55:27.520Z,35.86
2018-03-24T17:57:53.547Z,35.82
2018-03-24T18:00:19.534Z,35.87
2018-03-24T18:02:45.523Z,35.94
2018-03-24T18:05:11.511Z,36.07
2018-03-24T18:07:37.564Z,36.41
2018-03-24T18:10:03.566Z,37.00
2018-03-24T18:12:29.502Z,36.90
2018-03-24T18:14:55.493Z,36.70
2018-03-24T18:17:21.601Z,37.05
2018-03-24T18:19:47.691Z,38.02
2018-03-24T18:22:13.710Z,38.88
2018-03-24T18:24:39.744Z,37.69
2018-03-24T18:27:05.866Z,38.17
2018-03-24T18:29:31.860Z,38.43
2018-03-24T18:31:57.973Z,38.25
2018-03-24T18:34:23.980Z,38.44
2018-03-24T18:36:49.968Z,38.18
2018-03-24T18:39:16.455Z,37.77
2018-03-24T18:41:42.473Z,36.95
2018-03-24T18:44:08.497Z,36.70
2018-03-24T18:46:34.454Z,38.52
2018-03-24T18:49:00.460Z,39.63
2018-03-24T18:51:26.462Z,39.95
2018-03-24T18:53:52.453Z,38.58
2018-03-24T18:56:18.579Z,37.51
2018-03-24T18:58:44.618Z,37.12
2018-03-24T19:01:10.607Z,36.75
2018-03-24T19:03:36.611Z,36.19
2018-03-24T19:06:02.648Z,35.88
2018-03-24T19:08:28.645Z,35.73
2018-03-24T19:10:54.664Z,35.31
2018-03-24T19:13:20.662Z,35.25
2018-03-24T19:15:46.687Z,35.15
2018-03-24T19:18:12.677Z,35.58
2018-03-24T19:20:38.643Z,35.86
2018-03-24T19:23:04.886Z,36.08
2018-03-24T19:25:47.783Z,36.30
2018-03-24T19:28:14.066Z,36.37
2018-03-24T19:30:46.599Z,36.45
2018-03-24T19:33:12.592Z,36.18
2018-03-24T19:35:38.619Z,36.07
2018-03-24T19:38:04.641Z,35.78
2018-03-24T19:40:30.600Z,35.89
2018-03-24T19:42:56.630Z,36.11
2018-03-24T19:45:22.614Z,36.10
2018-03-24T19:47:48.640Z,36.01
2018-03-24T19:50:14.620Z,36.02
2018-03-24T19:52:42.301Z,35.98
2018-03-24T19:55:08.630Z,35.86
2018-03-24T19:57:34.624Z,35.86
2018-03-24T20:00:00.626Z,35.78
2018-03-24T20:02:26.615Z,35.77
2018-03-24T20:04:53.137Z,35.72
2018-03-24T20:07:19.138Z,35.71
2018-03-24T20:09:45.127Z,35.64
2018-03-24T20:12:11.156Z,35.58
2018-03-24T20:14:37.171Z,35.52
2018-03-24T20:17:03.127Z,35.46
2018-03-24T20:19:29.154Z,35.46
2018-03-24T20:21:55.141Z,35.25
2018-03-24T20:24:21.132Z,35.24
2018-03-24T20:26:47.125Z,35.31
2018-03-24T20:29:13.159Z,35.37
2018-03-24T20:31:39.156Z,35.32
2018-03-24T20:34:05.147Z,35.26
2018-03-24T20:36:31.166Z,35.21
2018-03-24T20:38:57.184Z,35.15
2018-03-24T20:41:23.139Z,35.19
2018-03-24T20:43:49.128Z,35.13
2018-03-24T20:46:15.119Z,35.09
2018-03-24T20:48:41.120Z,35.06
2018-03-24T20:51:07.129Z,35.01
2018-03-24T20:53:33.120Z,34.98
2018-03-24T20:55:59.114Z,35.00
2018-03-24T20:58:25.118Z,34.96
2018-03-24T21:00:51.698Z,34.84
2018-03-24T21:03:17.686Z,34.88
2018-03-24T21:05:43.706Z,34.92
2018-03-24T21:08:10.241Z,34.87
2018-03-24T21:10:36.232Z,34.81
2018-03-24T21:13:02.890Z,34.76
2018-03-24T21:15:28.901Z,34.71
2018-03-24T21:17:54.849Z,34.50
2018-03-24T21:20:20.850Z,34.66
2018-03-24T21:22:47.604Z,34.69
2018-03-24T21:25:13.602Z,34.74
2018-03-24T21:27:40.337Z,34.92
2018-03-24T21:30:06.635Z,34.88
2018-03-24T21:32:32.957Z,34.89
2018-03-24T21:34:58.950Z,34.92
2018-03-24T21:37:25.345Z,34.88
2018-03-24T21:39:51.646Z,34.83
2018-03-24T21:42:17.665Z,34.79
2018-03-24T21:44:44.167Z,34.88
2018-03-24T21:47:10.196Z,34.74
2018-03-24T21:49:36.199Z,34.81
2018-03-24T21:52:02.218Z,34.75
2018-03-24T21:54:28.178Z,34.75
2018-03-24T21:56:54.166Z,34.73
2018-03-24T21:59:20.210Z,34.64
2018-03-24T22:01:46.194Z,34.70
2018-03-24T22:04:12.194Z,34.63
2018-03-24T22:06:38.274Z,34.52
2018-03-24T22:09:04.226Z,34.56
2018-03-24T22:11:30.254Z,34.55
2018-03-24T22:13:56.213Z,34.59
2018-03-24T22:16:22.197Z,34.41
2018-03-24T22:18:48.191Z,34.50
2018-03-24T22:21:14.245Z,34.45
2018-03-24T22:23:40.175Z,34.34
2018-03-24T22:26:06.157Z,34.29
2018-03-24T22:28:32.174Z,34.49
2018-03-24T22:30:58.139Z,34.33
2018-03-24T22:33:24.128Z,34.29
2018-03-24T22:35:50.140Z,34.22
2018-03-24T22:38:16.167Z,34.41
2018-03-24T22:40:42.122Z,34.23
2018-03-24T22:43:08.124Z,34.14
2018-03-24T22:45:34.104Z,34.30
2018-03-24T22:48:00.097Z,34.15
2018-03-24T22:50:26.114Z,34.18
2018-03-24T22:52:52.116Z,34.17
2018-03-24T22:55:18.133Z,34.12
2018-03-24T22:57:44.089Z,34.26
2018-03-24T23:00:10.134Z,34.06
2018-03-24T23:02:36.193Z,34.14
2018-03-24T23:05:02.222Z,34.08
2018-03-24T23:07:28.226Z,33.99
2018-03-24T23:09:54.181Z,34.01
2018-03-24T23:12:20.236Z,34.09
2018-03-24T23:14:46.191Z,34.15
2018-03-24T23:17:12.179Z,33.96
2018-03-24T23:19:38.169Z,34.07
2018-03-24T23:22:04.220Z,34.03
2018-03-24T23:24:30.156Z,33.88
2018-03-24T23:26:56.180Z,34.00
2018-03-24T23:29:22.140Z,33.82
2018-03-24T23:31:48.160Z,33.78
2018-03-24T23:34:14.130Z,33.87
2018-03-24T23:36:40.145Z,34.01
2018-03-24T23:39:06.100Z,33.78
2018-03-24T23:41:32.148Z,33.58
2018-03-24T23:43:58.105Z,33.68
2018-03-24T23:46:24.095Z,33.38
2018-03-24T23:48:50.087Z,33.35
2018-03-24T23:51:16.078Z,33.53
2018-03-24T23:53:42.078Z,33.46
2018-03-24T23:56:08.070Z,33.65
2018-03-24T23:58:34.085Z,33.33
